createdAt,value
2023-04-29T00:01:05.913Z,79.70
2023-04-29T00:03:32.894Z,79.80
2023-04-29T00:06:00.345Z,79.80
2023-04-29T00:08:27.406Z,79.90
2023-04-29T00:10:54.162Z,79.90
2023-04-29T00:13:21.280Z,79.90
2023-04-29T00:15:48.177Z,79.90
2023-04-29T00:18:14.859Z,79.80
2023-04-29T00:20:43.412Z,79.80
2023-04-29T00:23:10.294Z,79.90
2023-04-29T00:25:38.267Z,79.80
2023-04-29T00:28:05.826Z,80.60
2023-04-29T00:30:34.472Z,79.80
2023-04-29T00:33:01.147Z,79.80
2023-04-29T00:35:27.847Z,79.70
2023-04-29T00:37:54.451Z,79.70
2023-04-29T00:40:21.246Z,79.70
2023-04-29T00:42:47.932Z,79.70
2023-04-29T00:45:14.731Z,79.70
2023-04-29T00:47:41.841Z,79.70
2023-04-29T00:50:09.021Z,79.80
2023-04-29T00:52:37.564Z,79.80
2023-04-29T00:55:06.224Z,79.80
2023-04-29T00:57:34.414Z,79.80
2023-04-29T01:00:01.373Z,79.80
2023-04-29T01:02:28.631Z,79.80
2023-04-29T01:04:55.559Z,79.90
2023-04-29T01:07:37.566Z,79.80
2023-04-29T01:10:07.149Z,79.80
2023-04-29T01:12:36.961Z,79.80
2023-04-29T01:15:15.219Z,79.80
2023-04-29T01:17:47.901Z,79.80
2023-04-29T01:20:16.638Z,79.90
2023-04-29T01:22:43.418Z,79.80
2023-04-29T01:25:10.512Z,79.80
2023-04-29T01:28:09.375Z,79.90
2023-04-29T01:31:18.347Z,79.90
2023-04-29T01:34:27.966Z,79.90
2023-04-29T01:37:02.124Z,80.70
2023-04-29T01:39:34.956Z,79.80
2023-04-29T01:42:19.609Z,79.80
2023-04-29T01:44:48.877Z,79.80
2023-04-29T01:47:17.267Z,79.70
2023-04-29T01:49:46.666Z,79.70
2023-04-29T01:52:13.485Z,79.70
2023-04-29T01:54:40.169Z,79.80
2023-04-29T01:57:06.921Z,79.80
2023-04-29T01:59:33.564Z,79.80
2023-04-29T02:02:00.232Z,79.70
2023-04-29T02:04:27.675Z,79.70
2023-04-29T02:06:54.390Z,79.80
2023-04-29T02:09:20.982Z,79.70
2023-04-29T02:11:47.683Z,79.70
2023-04-29T02:14:14.356Z,79.70
2023-04-29T02:16:43.984Z,79.80
2023-04-29T02:19:10.622Z,79.80
2023-04-29T02:21:37.280Z,79.70
2023-04-29T02:24:04.062Z,79.60
2023-04-29T02:26:30.795Z,79.60
2023-04-29T02:28:57.928Z,79.50
2023-04-29T02:31:24.653Z,79.50
2023-04-29T02:33:51.314Z,79.50
2023-04-29T02:36:18.432Z,79.50
2023-04-29T02:38:45.085Z,79.50
2023-04-29T02:41:19.511Z,79.50
2023-04-29T02:43:46.461Z,79.50
2023-04-29T02:46:13.112Z,79.40
2023-04-29T02:48:39.806Z,79.40
2023-04-29T02:51:06.660Z,79.40
2023-04-29T02:53:33.714Z,79.40
2023-04-29T02:56:00.364Z,79.40
2023-04-29T02:58:27.080Z,79.40
2023-04-29T03:00:53.740Z,79.40
2023-04-29T03:03:20.760Z,79.40
2023-04-29T03:05:48.096Z,79.40
2023-04-29T03:08:15.266Z,79.40
2023-04-29T03:10:42.844Z,79.40
2023-04-29T03:13:09.449Z,79.30
2023-04-29T03:15:36.684Z,79.20
2023-04-29T03:18:04.830Z,79.30
2023-04-29T03:20:32.654Z,79.40
2023-04-29T03:23:00.799Z,80.20
2023-04-29T03:25:28.099Z,79.30
2023-04-29T03:27:54.748Z,79.40
2023-04-29T03:30:21.363Z,79.30
2023-04-29T03:32:48.078Z,79.40
2023-04-29T03:35:15.841Z,79.30
2023-04-29T03:37:44.457Z,79.40
2023-04-29T03:40:12.244Z,79.40
2023-04-29T03:42:38.927Z,79.30
2023-04-29T03:45:06.514Z,79.10
2023-04-29T03:47:33.139Z,79.00
2023-04-29T03:49:59.820Z,79.00
2023-04-29T03:52:26.924Z,79.00
2023-04-29T03:54:53.546Z,79.00
2023-04-29T03:57:20.349Z,79.00
2023-04-29T03:59:50.758Z,79.00
2023-04-29T04:02:17.898Z,78.90
2023-04-29T04:04:44.915Z,78.80
2023-04-29T04:07:11.829Z,78.70
2023-04-29T04:09:38.785Z,78.70
2023-04-29T04:12:06.359Z,78.50
2023-04-29T04:14:33.239Z,78.40
2023-04-29T04:16:59.903Z,78.30
2023-04-29T04:19:27.109Z,78.20
2023-04-29T04:21:53.948Z,78.10
2023-04-29T04:24:20.778Z,78.00
2023-04-29T04:26:47.429Z,78.00
2023-04-29T04:29:14.226Z,77.90
2023-04-29T04:31:40.985Z,77.80
2023-04-29T04:34:07.730Z,77.80
2023-04-29T04:36:34.437Z,77.80
2023-04-29T04:39:01.175Z,78.60
2023-04-29T04:41:27.818Z,77.60
2023-04-29T04:43:54.512Z,77.70
2023-04-29T04:46:21.127Z,77.60
2023-04-29T04:48:47.774Z,77.70
2023-04-29T04:51:14.593Z,77.80
2023-04-29T04:53:41.436Z,77.80
2023-04-29T04:56:08.555Z,77.70
2023-04-29T04:58:35.253Z,77.60
2023-04-29T05:01:02.121Z,77.60
2023-04-29T05:03:29.065Z,77.60
2023-04-29T05:05:56.563Z,77.60
2023-04-29T05:08:23.398Z,77.60
2023-04-29T05:10:50.191Z,77.60
2023-04-29T05:13:17.287Z,77.50
2023-04-29T05:15:44.613Z,77.50
2023-04-29T05:18:11.617Z,77.50
2023-04-29T05:20:38.263Z,77.50
2023-04-29T05:23:04.972Z,77.40
2023-04-29T05:25:31.615Z,77.40
2023-04-29T05:27:58.288Z,77.40
2023-04-29T05:30:24.845Z,77.30
2023-04-29T05:32:51.709Z,77.30
2023-04-29T05:35:18.486Z,77.30
2023-04-29T05:37:45.085Z,77.10
2023-04-29T05:40:12.046Z,77.20
2023-04-29T05:42:38.634Z,77.10
2023-04-29T05:45:06.044Z,77.00
2023-04-29T05:47:33.344Z,77.00
2023-04-29T05:50:00.015Z,77.10
2023-04-29T05:52:26.721Z,77.20
2023-04-29T05:54:53.326Z,77.20
2023-04-29T05:57:19.910Z,77.20
2023-04-29T05:59:46.807Z,77.20
2023-04-29T06:02:14.617Z,77.30
2023-04-29T06:04:41.845Z,77.20
2023-04-29T06:07:09.275Z,77.30
2023-04-29T06:09:36.919Z,77.20
2023-04-29T06:12:03.718Z,77.30
2023-04-29T06:14:30.388Z,77.20
2023-04-29T06:16:57.251Z,77.00
2023-04-29T06:19:25.069Z,77.10
2023-04-29T06:21:51.830Z,77.20
2023-04-29T06:24:18.498Z,77.10
2023-04-29T06:26:45.574Z,77.00
2023-04-29T06:29:12.343Z,77.00
2023-04-29T06:31:39.002Z,76.90
2023-04-29T06:34:06.661Z,77.00
2023-04-29T06:36:33.302Z,77.10
2023-04-29T06:38:59.975Z,77.20
2023-04-29T06:41:27.346Z,77.20
2023-04-29T06:43:54.008Z,76.90
2023-04-29T06:46:20.654Z,76.70
2023-04-29T06:48:47.526Z,76.60
2023-04-29T06:51:14.143Z,76.50
2023-04-29T06:53:40.738Z,76.30
2023-04-29T06:56:07.803Z,76.30
2023-04-29T06:58:34.458Z,76.50
2023-04-29T07:01:03.377Z,76.30
2023-04-29T07:03:30.382Z,76.30
2023-04-29T07:05:57.104Z,76.20
2023-04-29T07:08:23.849Z,75.80
2023-04-29T07:10:55.668Z,75.50
2023-04-29T07:13:22.646Z,75.20
2023-04-29T07:15:49.434Z,75.10
2023-04-29T07:18:16.085Z,74.80
2023-04-29T07:20:43.592Z,74.70
2023-04-29T07:23:10.427Z,74.80
2023-04-29T07:25:37.008Z,74.40
2023-04-29T07:28:03.732Z,74.10
2023-04-29T07:30:30.427Z,73.80
2023-04-29T07:32:57.319Z,73.70
2023-04-29T07:35:24.192Z,73.40
2023-04-29T07:37:50.808Z,73.10
2023-04-29T07:40:17.834Z,72.60
2023-04-29T07:42:44.682Z,72.40
2023-04-29T07:45:13.437Z,72.50
2023-04-29T07:47:40.177Z,73.20
2023-04-29T07:50:07.289Z,71.90
2023-04-29T07:52:35.040Z,71.70
2023-04-29T07:55:02.298Z,72.00
2023-04-29T07:57:29.101Z,71.90
2023-04-29T07:59:56.194Z,71.30
2023-04-29T08:02:23.196Z,70.80
2023-04-29T08:04:51.682Z,70.50
2023-04-29T08:07:18.794Z,70.30
2023-04-29T08:09:45.688Z,70.30
2023-04-29T08:12:12.385Z,70.50
2023-04-29T08:14:39.240Z,70.50
2023-04-29T08:17:05.916Z,70.30
2023-04-29T08:19:32.468Z,70.20
2023-04-29T08:21:59.085Z,70.40
2023-04-29T08:24:25.708Z,70.60
2023-04-29T08:26:53.336Z,70.50
2023-04-29T08:29:20.516Z,70.40
2023-04-29T08:31:47.226Z,71.00
2023-04-29T08:34:13.872Z,70.90
2023-04-29T08:36:40.469Z,70.50
2023-04-29T08:39:07.228Z,70.30
2023-04-29T08:41:34.286Z,69.00
2023-04-29T08:44:01.024Z,68.20
2023-04-29T08:46:27.805Z,68.50
2023-04-29T08:48:56.396Z,68.10
2023-04-29T08:51:23.113Z,67.70
2023-04-29T08:53:49.916Z,67.80
2023-04-29T08:56:20.516Z,68.20
2023-04-29T08:58:49.487Z,66.20
2023-04-29T09:01:16.618Z,65.30
2023-04-29T09:03:56.168Z,65.20
2023-04-29T09:06:22.850Z,65.40
2023-04-29T09:08:49.659Z,64.80
2023-04-29T09:11:16.607Z,63.70
2023-04-29T09:13:43.176Z,63.20
2023-04-29T09:16:13.268Z,62.10
2023-04-29T09:18:51.814Z,61.80
2023-04-29T09:21:27.167Z,60.30
2023-04-29T09:24:01.986Z,60.20
2023-04-29T09:26:43.627Z,59.60
2023-04-29T09:29:13.733Z,59.20
2023-04-29T09:31:40.969Z,59.40
2023-04-29T09:34:08.243Z,60.00
2023-04-29T09:36:45.575Z,59.50
2023-04-29T09:39:17.775Z,58.70
2023-04-29T09:41:53.421Z,58.00
2023-04-29T09:44:25.065Z,57.10
2023-04-29T09:47:04.417Z,57.10
2023-04-29T09:49:38.854Z,55.60
2023-04-29T09:52:08.076Z,55.60
2023-04-29T09:54:39.015Z,55.80
2023-04-29T09:57:07.207Z,56.60
2023-04-29T09:59:40.322Z,56.60
2023-04-29T10:02:18.776Z,56.10
2023-04-29T10:04:54.065Z,55.40
2023-04-29T10:07:21.939Z,54.40
2023-04-29T10:09:49.169Z,54.90
2023-04-29T10:12:20.265Z,54.70
2023-04-29T10:15:03.725Z,54.10
2023-04-29T10:17:46.938Z,54.10
2023-04-29T10:20:16.463Z,52.60
2023-04-29T10:22:47.737Z,52.10
2023-04-29T10:25:17.058Z,50.90
2023-04-29T10:27:44.681Z,50.70
2023-04-29T10:30:16.497Z,50.90
2023-04-29T10:32:51.195Z,50.00
2023-04-29T10:35:22.847Z,49.90
2023-04-29T10:37:50.221Z,50.80
2023-04-29T10:40:42.437Z,51.00
2023-04-29T10:43:09.024Z,50.00
2023-04-29T10:45:36.331Z,50.20
2023-04-29T10:48:03.360Z,49.80
2023-04-29T10:50:30.780Z,50.10
2023-04-29T10:52:58.636Z,49.40
2023-04-29T10:55:25.612Z,48.90
2023-04-29T10:57:53.649Z,48.30
2023-04-29T11:00:26.813Z,48.10
2023-04-29T11:02:58.684Z,48.90
2023-04-29T11:05:36.269Z,49.00
2023-04-29T11:08:24.141Z,49.90
2023-04-29T11:10:54.498Z,48.20
2023-04-29T11:13:28.618Z,48.40
2023-04-29T11:16:09.468Z,48.30
2023-04-29T11:18:56.949Z,48.00
2023-04-29T11:21:23.622Z,47.90
2023-04-29T11:23:52.186Z,47.70
2023-04-29T11:26:20.038Z,48.00
2023-04-29T11:28:48.196Z,48.10
2023-04-29T11:31:14.907Z,47.70
2023-04-29T11:33:41.524Z,47.40
2023-04-29T11:36:09.417Z,46.90
2023-04-29T11:38:43.253Z,47.00
2023-04-29T11:41:11.593Z,45.60
2023-04-29T11:43:41.510Z,46.30
2023-04-29T11:46:15.088Z,46.80
2023-04-29T11:48:48.917Z,46.90
2023-04-29T11:51:17.470Z,46.80
2023-04-29T11:53:44.271Z,47.00
2023-04-29T11:56:11.547Z,47.00
2023-04-29T11:58:39.119Z,46.80
2023-04-29T12:01:05.921Z,47.20
2023-04-29T12:03:33.881Z,46.80
2023-04-29T12:06:02.147Z,47.10
2023-04-29T12:08:30.139Z,46.60
2023-04-29T12:10:59.684Z,46.60
2023-04-29T12:13:29.242Z,47.00
2023-04-29T12:15:56.923Z,47.40
2023-04-29T12:18:24.017Z,47.20
2023-04-29T12:20:55.867Z,46.70
2023-04-29T12:23:29.642Z,46.40
2023-04-29T12:26:00.957Z,46.30
2023-04-29T12:28:27.623Z,46.00
2023-04-29T12:30:55.039Z,46.00
2023-04-29T12:33:27.162Z,46.00
2023-04-29T12:35:56.700Z,45.90
2023-04-29T12:38:28.226Z,45.90
2023-04-29T12:40:56.438Z,46.00
2023-04-29T12:43:27.795Z,45.70
2023-04-29T12:46:00.465Z,44.90
2023-04-29T12:48:33.932Z,45.50
2023-04-29T12:51:02.058Z,45.50
2023-04-29T12:53:32.287Z,45.20
2023-04-29T12:55:59.516Z,45.30
2023-04-29T12:58:30.154Z,45.50
2023-04-29T13:00:57.525Z,45.10
2023-04-29T13:03:24.941Z,45.50
2023-04-29T13:05:53.697Z,45.00
2023-04-29T13:08:21.115Z,44.80
2023-04-29T13:10:47.711Z,44.50
2023-04-29T13:13:14.300Z,43.90
2023-04-29T13:15:41.238Z,43.70
2023-04-29T13:18:08.053Z,43.00
2023-04-29T13:20:40.808Z,42.90
2023-04-29T13:23:08.793Z,42.50
2023-04-29T13:25:35.452Z,42.30
2023-04-29T13:28:02.166Z,42.00
2023-04-29T13:30:28.750Z,43.30
2023-04-29T13:33:01.233Z,42.10
2023-04-29T13:35:36.019Z,41.90
2023-04-29T13:38:02.815Z,41.50
2023-04-29T13:40:29.577Z,41.30
2023-04-29T13:43:04.293Z,41.10
2023-04-29T13:45:39.000Z,41.60
2023-04-29T13:48:20.036Z,41.70
2023-04-29T13:53:51.020Z,41.50
2023-04-29T13:59:19.555Z,40.60
2023-04-29T14:02:14.925Z,40.40
2023-04-29T14:04:11.928Z,40.10
2023-04-29T14:06:38.871Z,39.80
2023-04-29T14:09:06.052Z,39.70
2023-04-29T14:11:36.434Z,39.50
2023-04-29T14:14:03.537Z,39.50
2023-04-29T14:16:30.737Z,39.50
2023-04-29T14:18:57.598Z,40.60
2023-04-29T14:21:24.275Z,40.50
2023-04-29T14:23:51.118Z,39.50
2023-04-29T14:26:27.821Z,39.30
2023-04-29T14:28:59.342Z,39.20
2023-04-29T14:31:30.623Z,38.70
2023-04-29T14:33:58.296Z,38.80
2023-04-29T14:36:26.315Z,39.20
2023-04-29T14:38:53.089Z,39.30
2023-04-29T14:41:21.487Z,38.90
2023-04-29T14:43:48.223Z,38.90
2023-04-29T14:46:15.052Z,38.80
2023-04-29T14:48:41.805Z,39.00
2023-04-29T14:51:08.512Z,39.40
2023-04-29T14:53:35.251Z,39.60
2023-04-29T14:56:01.911Z,39.40
2023-04-29T14:58:28.571Z,38.90
2023-04-29T15:00:56.148Z,38.10
2023-04-29T15:03:23.511Z,39.40
2023-04-29T15:05:51.737Z,38.50
2023-04-29T15:08:19.346Z,38.40
2023-04-29T15:10:47.346Z,38.50
2023-04-29T15:13:14.065Z,38.30
2023-04-29T15:15:40.760Z,38.30
2023-04-29T15:18:08.740Z,38.50
2023-04-29T15:20:36.629Z,38.10
2023-04-29T15:23:04.180Z,38.40
2023-04-29T15:25:33.433Z,39.00
2023-04-29T15:28:00.995Z,38.80
2023-04-29T15:30:27.758Z,38.90
2023-04-29T15:32:57.587Z,38.90
2023-04-29T15:35:24.303Z,39.10
2023-04-29T15:37:50.981Z,38.80
2023-04-29T15:40:17.764Z,38.80
2023-04-29T15:42:44.560Z,38.90
2023-04-29T15:45:11.623Z,39.40
2023-04-29T15:47:38.446Z,40.10
2023-04-29T15:50:05.806Z,40.30
2023-04-29T15:52:32.439Z,40.40
2023-04-29T15:54:59.179Z,40.60
2023-04-29T15:57:26.031Z,40.80
2023-04-29T15:59:52.975Z,40.80
2023-04-29T16:02:20.826Z,41.30
2023-04-29T16:04:47.673Z,41.30
2023-04-29T16:07:14.519Z,41.40
2023-04-29T16:09:41.226Z,41.10
2023-04-29T16:12:08.496Z,41.20
2023-04-29T16:14:35.240Z,41.30
2023-04-29T16:17:02.031Z,41.20
2023-04-29T16:19:28.965Z,41.20
2023-04-29T16:21:55.688Z,41.60
2023-04-29T16:24:23.876Z,41.90
2023-04-29T16:26:50.689Z,42.10
2023-04-29T16:29:18.294Z,41.90
2023-04-29T16:31:45.364Z,41.70
2023-04-29T16:34:12.362Z,41.50
2023-04-29T16:36:39.321Z,40.50
2023-04-29T16:39:06.178Z,40.00
2023-04-29T16:41:33.104Z,39.50
2023-04-29T16:43:59.788Z,39.30
2023-04-29T16:46:26.626Z,38.70
2023-04-29T16:48:56.645Z,38.70
2023-04-29T16:51:27.434Z,38.80
2023-04-29T16:53:54.577Z,38.80
2023-04-29T16:56:22.518Z,38.40
2023-04-29T16:58:49.363Z,37.90
2023-04-29T17:01:19.634Z,38.20
2023-04-29T17:03:47.584Z,38.20
2023-04-29T17:06:15.577Z,37.90
2023-04-29T17:08:42.913Z,37.60
2023-04-29T17:11:10.287Z,37.50
2023-04-29T17:13:36.953Z,37.20
2023-04-29T17:16:03.986Z,37.00
2023-04-29T17:18:30.648Z,37.30
2023-04-29T17:20:57.252Z,37.60
2023-04-29T17:23:23.999Z,38.00
2023-04-29T17:25:50.667Z,38.00
2023-04-29T17:28:17.501Z,38.10
2023-04-29T17:30:44.112Z,38.00
2023-04-29T17:33:12.485Z,38.00
2023-04-29T17:35:39.375Z,38.30
2023-04-29T17:38:06.066Z,38.70
2023-04-29T17:40:32.632Z,38.60
2023-04-29T17:42:59.677Z,38.60
2023-04-29T17:45:26.336Z,38.90
2023-04-29T17:47:53.080Z,39.30
2023-04-29T17:50:19.808Z,39.50
2023-04-29T17:52:46.466Z,39.70
2023-04-29T17:55:13.156Z,40.00
2023-04-29T17:57:40.733Z,40.10
2023-04-29T18:00:08.445Z,40.50
2023-04-29T18:02:35.170Z,41.20
2023-04-29T18:05:03.448Z,41.10
2023-04-29T18:07:30.404Z,41.00
2023-04-29T18:09:57.597Z,41.10
2023-04-29T18:12:24.640Z,41.70
2023-04-29T18:14:51.873Z,42.20
2023-04-29T18:17:19.057Z,42.60
2023-04-29T18:19:52.345Z,43.00
2023-04-29T18:22:19.121Z,43.60
2023-04-29T18:24:46.708Z,43.80
2023-04-29T18:27:13.330Z,43.70
2023-04-29T18:29:39.976Z,43.90
2023-04-29T18:32:08.117Z,44.10
2023-04-29T18:34:35.106Z,44.30
2023-04-29T18:37:01.864Z,44.20
2023-04-29T18:39:28.702Z,44.40
2023-04-29T18:41:55.978Z,44.60
2023-04-29T18:44:22.624Z,44.70
2023-04-29T18:46:49.307Z,45.10
2023-04-29T18:49:17.598Z,45.50
2023-04-29T18:51:46.661Z,46.10
2023-04-29T18:54:18.590Z,46.20
2023-04-29T18:56:49.678Z,46.50
2023-04-29T18:59:19.326Z,46.60
2023-04-29T19:01:47.305Z,46.70
2023-04-29T19:04:14.705Z,46.80
2023-04-29T19:06:42.113Z,46.90
2023-04-29T19:09:08.999Z,47.20
2023-04-29T19:11:36.235Z,47.60
2023-04-29T19:14:05.863Z,47.80
2023-04-29T19:16:34.079Z,48.00
2023-04-29T19:19:03.820Z,48.40
2023-04-29T19:21:33.086Z,48.80
2023-04-29T19:24:00.265Z,49.30
2023-04-29T19:26:27.104Z,49.70
2023-04-29T19:28:54.690Z,50.30
2023-04-29T19:31:21.458Z,50.60
2023-04-29T19:33:48.303Z,50.90
2023-04-29T19:36:14.950Z,51.20
2023-04-29T19:38:41.571Z,51.20
2023-04-29T19:41:08.348Z,51.50
2023-04-29T19:43:35.351Z,51.80
2023-04-29T19:46:02.094Z,52.10
2023-04-29T19:48:28.884Z,52.20
2023-04-29T19:50:59.313Z,52.50
2023-04-29T19:53:26.716Z,52.70
2023-04-29T19:55:53.957Z,53.00
2023-04-29T19:58:20.697Z,53.40
2023-04-29T20:00:47.391Z,53.70
2023-04-29T20:03:14.103Z,54.00
2023-04-29T20:05:41.275Z,54.40
2023-04-29T20:08:07.852Z,54.70
2023-04-29T20:10:34.524Z,55.00
2023-04-29T20:13:01.390Z,55.30
2023-04-29T20:15:28.355Z,55.60
2023-04-29T20:17:55.678Z,55.90
2023-04-29T20:20:22.462Z,56.20
2023-04-29T20:22:49.146Z,56.50
2023-04-29T20:25:15.829Z,56.80
2023-04-29T20:27:42.511Z,57.10
2023-04-29T20:30:12.242Z,57.50
2023-04-29T20:32:38.944Z,57.80
2023-04-29T20:35:05.844Z,58.20
2023-04-29T20:37:32.438Z,58.50
2023-04-29T20:39:59.468Z,58.80
2023-04-29T20:42:26.205Z,59.00
2023-04-29T20:44:52.825Z,59.40
2023-04-29T20:47:19.991Z,59.80
2023-04-29T20:49:46.627Z,59.90
2023-04-29T20:52:13.236Z,60.10
2023-04-29T20:54:39.888Z,60.40
2023-04-29T20:57:06.689Z,60.60
2023-04-29T20:59:33.777Z,60.90
2023-04-29T21:02:00.734Z,61.10
2023-04-29T21:04:27.482Z,61.20
2023-04-29T21:06:54.173Z,61.40
2023-04-29T21:09:21.503Z,61.50
2023-04-29T21:11:48.347Z,61.80
2023-04-29T21:14:14.924Z,61.90
2023-04-29T21:16:42.618Z,62.10
2023-04-29T21:19:09.300Z,62.30
2023-04-29T21:21:35.925Z,62.40
2023-04-29T21:24:02.940Z,62.60
2023-04-29T21:26:29.524Z,62.80
2023-04-29T21:28:56.143Z,62.90
2023-04-29T21:31:22.807Z,63.00
2023-04-29T21:33:49.505Z,63.20
2023-04-29T21:36:16.230Z,63.30
2023-04-29T21:38:43.102Z,63.40
2023-04-29T21:41:28.172Z,63.50
2023-04-29T21:44:00.279Z,63.70
2023-04-29T21:46:33.048Z,63.70
2023-04-29T21:49:00.431Z,63.80
2023-04-29T21:51:28.288Z,63.90
2023-04-29T21:53:55.205Z,64.20
2023-04-29T21:56:24.353Z,64.30
2023-04-29T21:58:51.029Z,64.50
2023-04-29T22:01:27.598Z,64.60
2023-04-29T22:03:56.573Z,64.80
2023-04-29T22:06:23.929Z,64.90
2023-04-29T22:08:50.814Z,65.10
2023-04-29T22:11:18.594Z,65.20
2023-04-29T22:13:45.479Z,65.40
2023-04-29T22:16:12.336Z,65.60
2023-04-29T22:18:39.086Z,65.70
2023-04-29T22:21:06.350Z,65.80
2023-04-29T22:23:33.021Z,65.90
2023-04-29T22:25:59.601Z,66.00
2023-04-29T22:28:26.256Z,66.00
2023-04-29T22:30:53.513Z,66.20
2023-04-29T22:33:20.289Z,66.20
2023-04-29T22:35:46.865Z,66.40
2023-04-29T22:38:13.511Z,66.60
2023-04-29T22:40:40.909Z,66.70
2023-04-29T22:43:07.506Z,66.80
2023-04-29T22:45:34.109Z,67.00
2023-04-29T22:48:00.788Z,67.10
2023-04-29T22:50:27.480Z,67.20
2023-04-29T22:52:54.056Z,67.30
2023-04-29T22:55:20.758Z,67.40
2023-04-29T22:57:50.813Z,67.40
2023-04-29T23:00:17.595Z,67.50
2023-04-29T23:02:44.183Z,67.60
2023-04-29T23:05:11.261Z,67.70
2023-04-29T23:07:37.881Z,67.90
2023-04-29T23:10:04.841Z,67.90
2023-04-29T23:12:31.479Z,68.00
2023-04-29T23:14:58.142Z,68.10
2023-04-29T23:17:24.863Z,68.30
2023-04-29T23:19:51.533Z,68.40
2023-04-29T23:22:18.411Z,68.50
2023-04-29T23:24:45.096Z,68.50
2023-04-29T23:27:11.657Z,68.50
2023-04-29T23:29:38.820Z,68.70
2023-04-29T23:32:05.469Z,68.80
2023-04-29T23:34:32.061Z,68.90
2023-04-29T23:37:01.240Z,68.90
2023-04-29T23:39:27.997Z,68.90
2023-04-29T23:41:54.562Z,69.00
2023-04-29T23:44:21.167Z,68.90
2023-04-29T23:46:47.940Z,69.00
2023-04-29T23:49:14.600Z,69.10
2023-04-29T23:51:41.161Z,69.10
2023-04-29T23:54:07.838Z,69.10
2023-04-29T23:56:34.449Z,69.20
2023-04-29T23:59:01.068Z,69.40
